createdAt,value
2023-04-22T00:00:15.147Z,8.30
2023-04-22T00:02:42.353Z,8.30
2023-04-22T00:05:14.287Z,8.30
2023-04-22T00:07:43.438Z,8.30
2023-04-22T00:10:11.783Z,8.20
2023-04-22T00:12:39.102Z,8.10
2023-04-22T00:15:06.648Z,8.10
2023-04-22T00:17:33.970Z,8.20
2023-04-22T00:20:01.824Z,8.20
2023-04-22T00:22:28.910Z,8.20
2023-04-22T00:24:55.913Z,8.20
2023-04-22T00:27:22.874Z,8.30
2023-04-22T00:29:50.018Z,8.20
2023-04-22T00:32:17.000Z,8.20
2023-04-22T00:34:44.053Z,8.10
2023-04-22T00:37:11.116Z,8.10
2023-04-22T00:39:39.769Z,8.10
2023-04-22T00:42:08.044Z,8.00
2023-04-22T00:44:36.585Z,8.00
2023-04-22T00:47:04.653Z,8.10
2023-04-22T00:49:31.970Z,8.10
2023-04-22T00:51:59.068Z,8.10
2023-04-22T00:54:26.367Z,8.00
2023-04-22T00:56:53.492Z,8.00
2023-04-22T00:59:23.257Z,8.00
2023-04-22T01:01:51.401Z,8.10
2023-04-22T01:04:19.053Z,8.10
2023-04-22T01:06:47.734Z,8.10
2023-04-22T01:09:15.792Z,8.20
2023-04-22T01:11:42.810Z,8.10
2023-04-22T01:14:09.922Z,8.00
2023-04-22T01:16:39.139Z,8.00
2023-04-22T01:19:06.712Z,8.00
2023-04-22T01:21:35.588Z,8.00
2023-04-22T01:24:03.814Z,8.00
2023-04-22T01:26:31.567Z,8.10
2023-04-22T01:28:59.136Z,8.10
2023-04-22T01:31:26.167Z,8.00
2023-04-22T01:33:53.246Z,8.00
2023-04-22T01:36:20.231Z,8.00
2023-04-22T01:38:47.451Z,8.00
2023-04-22T01:41:15.092Z,8.10
2023-04-22T01:43:43.149Z,8.10
2023-04-22T01:46:10.268Z,8.10
2023-04-22T01:48:38.232Z,8.10
2023-04-22T01:51:05.260Z,8.10
2023-04-22T01:53:32.479Z,8.10
2023-04-22T01:56:00.373Z,8.10
2023-04-22T01:58:29.895Z,8.20
2023-04-22T02:00:57.027Z,8.10
2023-04-22T02:03:24.372Z,8.10
2023-04-22T02:05:51.462Z,8.10
2023-04-22T02:08:18.581Z,8.10
2023-04-22T02:10:45.769Z,8.10
2023-04-22T02:13:12.914Z,8.10
2023-04-22T02:15:41.359Z,8.10
2023-04-22T02:18:10.301Z,8.10
2023-04-22T02:20:37.628Z,8.10
2023-04-22T02:23:05.404Z,8.10
2023-04-22T02:25:32.563Z,8.10
2023-04-22T02:28:00.765Z,8.10
2023-04-22T02:30:27.909Z,8.10
2023-04-22T02:32:55.148Z,8.00
2023-04-22T02:35:22.512Z,8.00
2023-04-22T02:37:49.540Z,8.00
2023-04-22T02:40:16.670Z,7.90
2023-04-22T02:42:43.735Z,8.00
2023-04-22T02:45:11.370Z,8.00
2023-04-22T02:47:38.395Z,8.00
2023-04-22T02:50:07.046Z,8.00
2023-04-22T02:52:34.399Z,8.00
2023-04-22T02:55:01.541Z,8.00
2023-04-22T02:57:28.684Z,8.00
2023-04-22T02:59:55.653Z,8.00
2023-04-22T03:02:23.117Z,8.00
2023-04-22T03:04:50.299Z,8.00
2023-04-22T03:07:18.318Z,8.00
2023-04-22T03:09:45.296Z,8.00
2023-04-22T03:12:12.312Z,8.00
2023-04-22T03:14:39.441Z,8.00
2023-04-22T03:17:06.430Z,8.10
2023-04-22T03:19:33.509Z,8.10
2023-04-22T03:22:00.498Z,8.20
2023-04-22T03:24:27.554Z,8.30
2023-04-22T03:26:54.500Z,8.30
2023-04-22T03:29:21.503Z,8.30
2023-04-22T03:31:48.568Z,8.30
2023-04-22T03:34:15.679Z,8.30
2023-04-22T03:36:42.592Z,8.30
2023-04-22T03:39:09.754Z,8.30
2023-04-22T03:41:36.729Z,8.30
2023-04-22T03:44:03.855Z,8.30
2023-04-22T03:46:31.481Z,8.40
2023-04-22T03:48:59.714Z,8.40
2023-04-22T03:51:26.748Z,8.40
2023-04-22T03:53:53.800Z,8.50
2023-04-22T03:56:21.323Z,8.50
2023-04-22T03:58:48.396Z,8.60
2023-04-22T04:01:15.545Z,8.50
2023-04-22T04:03:42.726Z,8.60
2023-04-22T04:06:10.069Z,8.60
2023-04-22T04:08:38.377Z,8.70
2023-04-22T04:11:05.441Z,8.60
2023-04-22T04:13:32.641Z,8.60
2023-04-22T04:16:00.492Z,8.70
2023-04-22T04:18:29.675Z,8.70
2023-04-22T04:20:56.796Z,8.70
2023-04-22T04:23:23.746Z,8.70
2023-04-22T04:25:52.058Z,8.70
2023-04-22T04:28:19.566Z,8.60
2023-04-22T04:30:47.246Z,8.70
2023-04-22T04:33:16.859Z,8.60
2023-04-22T04:35:44.914Z,8.70
2023-04-22T04:38:12.920Z,8.70
2023-04-22T04:40:40.051Z,8.70
2023-04-22T04:43:08.846Z,8.80
2023-04-22T04:45:39.325Z,8.90
2023-04-22T04:48:09.486Z,8.90
2023-04-22T04:50:36.587Z,9.10
2023-04-22T04:53:03.686Z,9.10
2023-04-22T04:55:30.844Z,9.20
2023-04-22T04:57:58.913Z,9.40
2023-04-22T05:00:26.072Z,9.50
2023-04-22T05:02:54.301Z,9.70
2023-04-22T05:05:21.530Z,9.80
2023-04-22T05:07:48.515Z,9.90
2023-04-22T05:10:15.682Z,10.00
2023-04-22T05:12:44.242Z,10.30
2023-04-22T05:15:11.815Z,10.50
2023-04-22T05:17:38.799Z,10.70
2023-04-22T05:20:06.412Z,10.80
2023-04-22T05:22:41.432Z,11.00
2023-04-22T05:25:09.156Z,11.10
2023-04-22T05:27:36.154Z,11.20
2023-04-22T05:30:03.779Z,11.30
2023-04-22T05:32:30.719Z,11.40
2023-04-22T05:34:58.046Z,11.50
2023-04-22T05:37:25.070Z,11.60
2023-04-22T05:39:52.196Z,11.90
2023-04-22T05:42:19.517Z,12.40
2023-04-22T05:44:46.487Z,12.90
2023-04-22T05:47:13.919Z,13.30
2023-04-22T05:49:41.023Z,13.50
2023-04-22T05:52:08.383Z,13.60
2023-04-22T05:54:37.447Z,13.60
2023-04-22T05:57:04.560Z,13.60
2023-04-22T05:59:31.604Z,13.50
2023-04-22T06:01:58.675Z,13.50
2023-04-22T06:04:26.123Z,13.50
2023-04-22T06:06:56.361Z,13.70
2023-04-22T06:09:23.513Z,14.10
2023-04-22T06:11:50.617Z,14.70
2023-04-22T06:14:17.786Z,15.60
2023-04-22T06:16:44.856Z,16.60
2023-04-22T06:19:11.804Z,17.30
2023-04-22T06:21:40.630Z,17.90
2023-04-22T06:24:09.125Z,18.00
2023-04-22T06:26:39.173Z,17.80
2023-04-22T06:29:06.243Z,17.80
2023-04-22T06:31:33.451Z,17.40
2023-04-22T06:34:00.620Z,17.10
2023-04-22T06:36:30.227Z,16.80
2023-04-22T06:38:57.727Z,16.50
2023-04-22T06:41:26.813Z,16.10
2023-04-22T06:43:53.745Z,15.80
2023-04-22T06:46:21.021Z,15.50
2023-04-22T06:48:48.109Z,15.30
2023-04-22T06:51:15.244Z,15.30
2023-04-22T06:53:42.273Z,15.30
2023-04-22T06:56:09.405Z,15.40
2023-04-22T06:58:36.376Z,15.70
2023-04-22T07:01:03.370Z,16.00
2023-04-22T07:03:30.449Z,16.40
2023-04-22T07:05:57.583Z,16.70
2023-04-22T07:08:24.587Z,16.80
2023-04-22T07:10:51.603Z,16.80
2023-04-22T07:13:18.619Z,17.00
2023-04-22T07:15:46.615Z,16.80
2023-04-22T07:18:13.710Z,16.50
2023-04-22T07:20:40.645Z,16.40
2023-04-22T07:23:07.673Z,16.40
2023-04-22T07:25:34.703Z,16.30
2023-04-22T07:28:01.877Z,16.30
2023-04-22T07:30:28.797Z,16.30
2023-04-22T07:32:56.829Z,16.50
2023-04-22T07:35:23.855Z,16.50
2023-04-22T07:37:50.965Z,16.60
2023-04-22T07:40:18.048Z,16.60
2023-04-22T07:42:45.044Z,16.80
2023-04-22T07:45:12.325Z,16.70
2023-04-22T07:47:39.702Z,16.70
2023-04-22T07:50:07.376Z,16.70
2023-04-22T07:52:34.677Z,17.00
2023-04-22T07:55:02.007Z,17.20
2023-04-22T07:57:29.350Z,17.30
2023-04-22T07:59:56.648Z,17.60
2023-04-22T08:02:23.835Z,17.90
2023-04-22T08:04:51.099Z,18.20
2023-04-22T08:07:32.634Z,18.20
2023-04-22T08:10:00.538Z,17.80
2023-04-22T08:12:27.659Z,17.90
2023-04-22T08:14:54.746Z,18.10
2023-04-22T08:17:23.015Z,18.30
2023-04-22T08:19:50.479Z,18.70
2023-04-22T08:22:18.704Z,19.00
2023-04-22T08:24:45.989Z,19.20
2023-04-22T08:27:13.148Z,19.40
2023-04-22T08:29:41.046Z,19.50
2023-04-22T08:32:08.660Z,19.30
2023-04-22T08:34:36.719Z,19.50
2023-04-22T08:37:06.052Z,19.90
2023-04-22T08:39:33.561Z,19.80
2023-04-22T08:42:02.370Z,19.80
2023-04-22T08:44:30.662Z,19.80
2023-04-22T08:47:03.054Z,19.80
2023-04-22T08:49:30.885Z,19.90
2023-04-22T08:51:58.034Z,19.90
2023-04-22T08:54:25.141Z,19.30
2023-04-22T08:56:52.772Z,19.10
2023-04-22T08:59:22.711Z,19.40
2023-04-22T09:01:54.346Z,19.80
2023-04-22T09:04:22.423Z,20.20
2023-04-22T09:06:49.730Z,20.40
2023-04-22T09:09:17.487Z,20.50
2023-04-22T09:11:44.915Z,20.60
2023-04-22T09:14:14.428Z,20.70
2023-04-22T09:16:46.862Z,20.80
2023-04-22T09:19:15.450Z,20.90
2023-04-22T09:21:42.723Z,20.80
2023-04-22T09:24:11.033Z,20.80
2023-04-22T09:26:42.679Z,20.80
2023-04-22T09:29:15.186Z,21.00
2023-04-22T09:31:42.478Z,21.20
2023-04-22T09:34:09.779Z,21.40
2023-04-22T09:36:40.731Z,21.50
2023-04-22T09:39:08.709Z,21.40
2023-04-22T09:41:38.835Z,21.80
2023-04-22T09:44:15.940Z,22.00
2023-04-22T09:46:44.439Z,22.30
2023-04-22T09:49:11.792Z,22.40
2023-04-22T09:51:44.340Z,22.30
2023-04-22T09:54:12.231Z,22.20
2023-04-22T09:56:50.762Z,22.10
2023-04-22T09:59:29.318Z,22.20
2023-04-22T10:02:00.886Z,22.50
2023-04-22T10:04:28.527Z,22.60
2023-04-22T10:06:56.249Z,22.20
2023-04-22T10:09:25.146Z,22.00
2023-04-22T10:11:54.186Z,21.70
2023-04-22T10:14:25.693Z,21.60
2023-04-22T10:16:58.041Z,21.30
2023-04-22T10:19:26.876Z,21.00
2023-04-22T10:21:57.187Z,21.10
2023-04-22T10:24:34.513Z,21.10
2023-04-22T10:27:06.873Z,21.00
2023-04-22T10:29:39.314Z,21.10
2023-04-22T10:32:25.218Z,21.10
2023-04-22T10:35:09.296Z,21.00
2023-04-22T10:37:36.519Z,21.00
2023-04-22T10:40:12.606Z,21.20
2023-04-22T10:42:41.556Z,21.40
2023-04-22T10:45:14.213Z,21.70
2023-04-22T10:47:44.411Z,21.80
2023-04-22T10:50:26.657Z,21.90
2023-04-22T10:53:03.390Z,21.80
2023-04-22T10:56:01.972Z,22.00
2023-04-22T10:58:34.910Z,22.00
2023-04-22T11:01:15.258Z,21.80
2023-04-22T11:03:42.376Z,21.60
2023-04-22T11:06:16.053Z,21.40
2023-04-22T11:08:50.120Z,21.60
2023-04-22T11:11:18.938Z,21.50
2023-04-22T11:13:50.476Z,21.60
2023-04-22T11:16:18.865Z,21.60
2023-04-22T11:18:48.050Z,21.60
2023-04-22T11:21:15.268Z,21.60
2023-04-22T11:23:53.457Z,21.70
2023-04-22T11:26:34.518Z,21.80
2023-04-22T11:29:01.603Z,21.90
2023-04-22T11:31:28.650Z,22.10
2023-04-22T11:34:00.057Z,22.50
2023-04-22T11:36:27.835Z,22.80
2023-04-22T11:38:56.439Z,23.10
2023-04-22T11:41:23.940Z,23.40
2023-04-22T11:43:51.210Z,23.40
2023-04-22T11:46:29.292Z,23.30
2023-04-22T11:49:15.483Z,23.20
2023-04-22T11:51:56.507Z,23.20
2023-04-22T11:54:34.439Z,23.00
2023-04-22T11:57:09.401Z,22.90
2023-04-22T11:59:36.479Z,23.00
2023-04-22T12:02:07.624Z,23.10
2023-04-22T12:04:41.488Z,22.90
2023-04-22T12:07:09.002Z,22.90
2023-04-22T12:09:36.000Z,23.00
2023-04-22T12:12:06.235Z,23.10
2023-04-22T12:14:34.580Z,23.40
2023-04-22T12:17:10.545Z,23.80
2023-04-22T12:19:38.334Z,24.00
2023-04-22T12:22:05.548Z,23.90
2023-04-22T12:24:34.701Z,23.90
2023-04-22T12:27:01.986Z,23.80
2023-04-22T12:29:35.216Z,23.80
2023-04-22T12:32:02.453Z,23.90
2023-04-22T12:34:56.310Z,23.80
2023-04-22T12:37:23.448Z,23.90
2023-04-22T12:39:51.252Z,24.00
2023-04-22T12:42:19.449Z,23.90
2023-04-22T12:44:47.652Z,23.90
2023-04-22T12:47:14.761Z,24.00
2023-04-22T12:49:42.537Z,24.10
2023-04-22T12:52:11.360Z,24.00
2023-04-22T12:54:38.426Z,24.10
2023-04-22T12:57:05.698Z,23.90
2023-04-22T12:59:32.758Z,23.60
2023-04-22T13:01:59.952Z,23.60
2023-04-22T13:04:27.315Z,23.70
2023-04-22T13:06:57.318Z,23.50
2023-04-22T13:09:25.774Z,23.20
2023-04-22T13:11:53.413Z,23.20
2023-04-22T13:14:21.604Z,23.30
2023-04-22T13:16:48.786Z,23.20
2023-04-22T13:19:15.868Z,23.40
2023-04-22T13:21:43.051Z,23.40
2023-04-22T13:24:10.180Z,23.50
2023-04-22T13:26:39.061Z,23.50
2023-04-22T13:29:11.168Z,23.30
2023-04-22T13:31:38.960Z,23.30
2023-04-22T13:34:05.972Z,23.40
2023-04-22T13:36:33.041Z,23.60
2023-04-22T13:39:00.774Z,23.80
2023-04-22T13:41:27.763Z,24.00
2023-04-22T13:43:56.551Z,23.90
2023-04-22T13:46:24.277Z,23.80
2023-04-22T13:48:51.421Z,23.70
2023-04-22T13:51:18.528Z,23.80
2023-04-22T13:53:45.724Z,24.10
2023-04-22T13:56:13.809Z,24.30
2023-04-22T13:58:42.582Z,24.40
2023-04-22T14:01:09.767Z,24.30
2023-04-22T14:03:37.014Z,24.10
2023-04-22T14:06:04.253Z,23.80
2023-04-22T14:08:31.287Z,24.10
2023-04-22T14:10:59.546Z,24.20
2023-04-22T14:13:29.534Z,23.90
2023-04-22T14:15:56.634Z,23.50
2023-04-22T14:18:24.072Z,23.00
2023-04-22T14:20:52.297Z,22.60
2023-04-22T14:23:19.988Z,22.30
2023-04-22T14:25:48.447Z,22.10
2023-04-22T14:28:16.503Z,22.20
2023-04-22T14:30:43.852Z,22.50
2023-04-22T14:33:11.190Z,22.60
2023-04-22T14:35:39.465Z,22.60
2023-04-22T14:38:09.132Z,22.80
2023-04-22T14:40:36.330Z,23.10
2023-04-22T14:43:06.032Z,23.30
2023-04-22T14:45:34.110Z,23.30
2023-04-22T14:48:01.974Z,23.10
2023-04-22T14:50:29.622Z,23.10
2023-04-22T14:52:57.066Z,23.10
2023-04-22T14:55:24.327Z,23.00
2023-04-22T14:57:53.498Z,22.90
2023-04-22T15:00:20.594Z,22.70
2023-04-22T15:02:48.810Z,22.60
2023-04-22T15:05:15.948Z,22.40
2023-04-22T15:07:43.126Z,22.20
2023-04-22T15:10:10.289Z,22.30
2023-04-22T15:12:37.262Z,22.30
2023-04-22T15:15:04.601Z,22.30
2023-04-22T15:17:31.672Z,22.10
2023-04-22T15:19:59.876Z,22.00
2023-04-22T15:22:26.989Z,21.90
2023-04-22T15:24:54.971Z,21.90
2023-04-22T15:27:21.973Z,21.90
2023-04-22T15:29:51.805Z,22.00
2023-04-22T15:32:18.804Z,21.90
2023-04-22T15:34:45.859Z,21.90
2023-04-22T15:37:14.737Z,21.90
2023-04-22T15:39:42.314Z,21.90
2023-04-22T15:42:09.757Z,21.80
2023-04-22T15:44:38.517Z,21.80
2023-04-22T15:47:06.103Z,21.60
2023-04-22T15:49:33.171Z,21.50
2023-04-22T15:52:01.168Z,21.40
2023-04-22T15:54:30.618Z,21.40
2023-04-22T15:56:58.773Z,21.40
2023-04-22T15:59:25.823Z,21.20
2023-04-22T16:01:52.880Z,21.20
2023-04-22T16:04:22.238Z,21.20
2023-04-22T16:06:50.845Z,21.20
2023-04-22T16:09:18.389Z,21.10
2023-04-22T16:11:45.328Z,21.20
2023-04-22T16:14:12.643Z,21.20
2023-04-22T16:16:41.297Z,21.20
2023-04-22T16:19:08.627Z,21.20
2023-04-22T16:21:36.096Z,21.10
2023-04-22T16:24:09.450Z,21.00
2023-04-22T16:26:36.419Z,21.10
2023-04-22T16:29:04.369Z,21.10
2023-04-22T16:31:31.408Z,21.10
2023-04-22T16:33:59.249Z,21.00
2023-04-22T16:36:26.483Z,21.00
2023-04-22T16:38:53.528Z,20.90
2023-04-22T16:41:20.772Z,20.80
2023-04-22T16:43:47.912Z,20.80
2023-04-22T16:46:14.915Z,20.70
2023-04-22T16:48:41.898Z,20.60
2023-04-22T16:51:08.847Z,20.50
2023-04-22T16:53:36.137Z,20.40
2023-04-22T16:56:03.145Z,20.20
2023-04-22T16:58:30.121Z,20.20
2023-04-22T17:00:57.174Z,20.00
2023-04-22T17:03:24.352Z,19.90
2023-04-22T17:05:51.445Z,19.80
2023-04-22T17:08:18.669Z,19.70
2023-04-22T17:10:45.744Z,19.60
2023-04-22T17:13:16.227Z,19.60
2023-04-22T17:15:43.283Z,19.50
2023-04-22T17:18:10.749Z,19.40
2023-04-22T17:20:38.026Z,19.30
2023-04-22T17:23:05.125Z,19.30
2023-04-22T17:25:32.228Z,19.20
2023-04-22T17:27:59.201Z,19.10
2023-04-22T17:30:26.296Z,19.00
2023-04-22T17:32:53.300Z,18.80
2023-04-22T17:35:20.427Z,18.70
2023-04-22T17:37:47.425Z,18.60
2023-04-22T17:40:14.514Z,18.40
2023-04-22T17:42:45.971Z,18.40
2023-04-22T17:45:13.796Z,18.30
2023-04-22T17:47:40.852Z,18.30
2023-04-22T17:50:08.625Z,18.20
2023-04-22T17:52:35.902Z,18.10
2023-04-22T17:55:03.216Z,18.10
2023-04-22T17:57:31.298Z,18.10
2023-04-22T17:59:58.314Z,18.00
2023-04-22T18:02:25.678Z,17.90
2023-04-22T18:04:53.030Z,17.80
2023-04-22T18:07:20.032Z,17.80
2023-04-22T18:09:47.126Z,17.70
2023-04-22T18:12:14.120Z,17.80
2023-04-22T18:14:41.492Z,17.70
2023-04-22T18:17:08.499Z,17.60
2023-04-22T18:19:35.469Z,17.60
2023-04-22T18:22:02.644Z,17.60
2023-04-22T18:24:29.718Z,17.50
2023-04-22T18:26:56.707Z,17.40
2023-04-22T18:29:23.738Z,17.30
2023-04-22T18:31:50.995Z,17.30
2023-04-22T18:34:18.216Z,17.20
2023-04-22T18:36:45.141Z,17.20
2023-04-22T18:39:12.433Z,17.10
2023-04-22T18:41:40.136Z,17.10
2023-04-22T18:44:07.216Z,17.10
2023-04-22T18:46:34.211Z,17.00
2023-04-22T18:49:01.313Z,17.00
2023-04-22T18:51:29.916Z,16.90
2023-04-22T18:53:57.272Z,16.90
2023-04-22T18:56:24.287Z,16.80
2023-04-22T18:58:51.452Z,16.80
2023-04-22T19:01:18.582Z,16.80
2023-04-22T19:06:13.408Z,16.70
2023-04-22T19:08:40.514Z,16.70
2023-04-22T19:11:07.554Z,16.70
2023-04-22T19:13:34.515Z,16.60
2023-04-22T19:16:01.672Z,16.60
2023-04-22T19:18:28.737Z,16.50
2023-04-22T19:20:55.807Z,16.50
2023-04-22T19:23:22.819Z,16.50
2023-04-22T19:25:50.524Z,16.40
2023-04-22T19:28:17.527Z,16.50
2023-04-22T19:30:44.606Z,16.40
2023-04-22T19:33:11.762Z,16.40
2023-04-22T19:35:38.714Z,16.40
2023-04-22T19:38:05.844Z,16.50
2023-04-22T19:40:32.820Z,16.40
2023-04-22T19:42:59.876Z,16.30
2023-04-22T19:45:27.258Z,16.30
2023-04-22T19:47:54.490Z,16.30
2023-04-22T19:50:21.930Z,16.20
2023-04-22T19:52:50.665Z,16.20
2023-04-22T19:55:18.074Z,16.20
2023-04-22T19:57:46.492Z,16.30
2023-04-22T20:00:14.557Z,16.20
2023-04-22T20:02:42.352Z,16.30
2023-04-22T20:05:10.357Z,16.40
2023-04-22T20:07:38.406Z,16.30
2023-04-22T20:10:07.098Z,16.30
2023-04-22T20:12:34.563Z,16.40
2023-04-22T20:15:03.468Z,16.30
2023-04-22T20:17:31.576Z,16.30
2023-04-22T20:19:58.659Z,16.40
2023-04-22T20:22:26.356Z,16.40
2023-04-22T20:25:02.210Z,16.40
2023-04-22T20:27:33.676Z,16.40
2023-04-22T20:30:05.530Z,16.40
2023-04-22T20:32:33.046Z,16.40
2023-04-22T20:35:00.748Z,16.30
2023-04-22T20:37:28.745Z,16.30
2023-04-22T20:39:56.609Z,16.30
2023-04-22T20:42:24.967Z,16.30
2023-04-22T20:44:52.290Z,16.20
2023-04-22T20:47:19.528Z,16.20
2023-04-22T20:49:46.678Z,16.10
2023-04-22T20:52:13.716Z,16.00
2023-04-22T20:54:41.218Z,16.00
2023-04-22T20:57:08.319Z,16.00
2023-04-22T20:59:36.146Z,15.90
2023-04-22T21:02:07.096Z,15.90
2023-04-22T21:04:35.224Z,15.90
2023-04-22T21:07:07.388Z,15.90
2023-04-22T21:09:34.745Z,15.90
2023-04-22T21:12:03.812Z,15.90
2023-04-22T21:14:31.052Z,15.90
2023-04-22T21:17:10.628Z,15.90
2023-04-22T21:19:38.709Z,15.90
2023-04-22T21:22:07.038Z,15.90
2023-04-22T21:24:37.863Z,15.80
2023-04-22T21:27:06.820Z,15.70
2023-04-22T21:29:34.199Z,15.60
2023-04-22T21:32:08.203Z,15.60
2023-04-22T21:34:37.267Z,15.50
2023-04-22T21:37:05.531Z,15.50
2023-04-22T21:39:32.774Z,15.40
2023-04-22T21:42:00.482Z,15.40
2023-04-22T21:44:27.488Z,15.30
2023-04-22T21:46:54.429Z,15.30
2023-04-22T21:49:23.123Z,15.20
2023-04-22T21:51:50.256Z,15.20
2023-04-22T21:54:18.168Z,15.20
2023-04-22T21:56:45.324Z,15.10
2023-04-22T21:59:12.508Z,15.10
2023-04-22T22:01:39.442Z,15.00
2023-04-22T22:04:06.621Z,14.80
2023-04-22T22:06:33.694Z,14.70
2023-04-22T22:09:01.138Z,14.70
2023-04-22T22:11:31.391Z,14.60
2023-04-22T22:13:58.981Z,14.60
2023-04-22T22:16:26.776Z,14.60
2023-04-22T22:18:55.815Z,14.50
2023-04-22T22:21:22.803Z,14.50
2023-04-22T22:23:49.748Z,14.50
2023-04-22T22:26:16.971Z,14.40
2023-04-22T22:28:44.182Z,14.40
2023-04-22T22:31:11.201Z,14.40
2023-04-22T22:33:38.138Z,14.30
2023-04-22T22:36:05.406Z,14.30
2023-04-22T22:38:32.426Z,14.20
2023-04-22T22:40:59.382Z,14.10
2023-04-22T22:43:29.408Z,14.10
2023-04-22T22:45:56.828Z,14.00
2023-04-22T22:48:23.788Z,14.00
2023-04-22T22:50:53.109Z,13.90
2023-04-22T22:53:20.309Z,13.90
2023-04-22T22:55:47.376Z,13.80
2023-04-22T22:58:14.278Z,13.80
2023-04-22T23:00:41.372Z,13.80
2023-04-22T23:03:08.527Z,13.80
2023-04-22T23:05:35.725Z,13.80
2023-04-22T23:08:02.633Z,13.80
2023-04-22T23:10:29.741Z,13.90
2023-04-22T23:12:56.772Z,13.90
2023-04-22T23:15:23.799Z,13.90
2023-04-22T23:17:51.304Z,13.90
2023-04-22T23:20:18.644Z,13.90
2023-04-22T23:22:46.645Z,13.90
2023-04-22T23:25:14.459Z,13.90
2023-04-22T23:27:42.018Z,13.90
2023-04-22T23:30:09.480Z,13.90
2023-04-22T23:32:39.577Z,13.90
2023-04-22T23:35:08.498Z,13.90
2023-04-22T23:37:37.900Z,13.80
2023-04-22T23:40:06.903Z,13.80
2023-04-22T23:42:33.878Z,13.80
2023-04-22T23:45:00.878Z,13.80
2023-04-22T23:47:27.944Z,13.80
2023-04-22T23:49:54.918Z,13.80
2023-04-22T23:52:21.874Z,13.80
2023-04-22T23:54:52.392Z,13.70
2023-04-22T23:57:19.817Z,13.70
2023-04-22T23:59:47.484Z,13.70
